createdAt,value
2019-06-07T00:01:50.809Z,17.60
2019-06-07T00:04:21.457Z,17.70
2019-06-07T00:06:51.565Z,17.80
2019-06-07T00:09:22.466Z,17.70
2019-06-07T00:11:52.938Z,17.70
2019-06-07T00:14:22.718Z,17.70
2019-06-07T00:16:52.550Z,17.70
2019-06-07T00:19:22.327Z,17.70
2019-06-07T00:22:17.656Z,17.70
2019-06-07T00:24:23.507Z,17.70
2019-06-07T00:26:58.873Z,17.70
2019-06-07T00:29:25.010Z,17.60
2019-06-07T00:31:55.020Z,17.70
2019-06-07T00:34:25.086Z,17.70
2019-06-07T00:36:55.253Z,17.70
2019-06-07T00:39:26.028Z,17.70
2019-06-07T00:41:56.390Z,17.70
2019-06-07T00:44:26.118Z,17.60
2019-06-07T00:46:55.927Z,17.60
2019-06-07T00:49:40.970Z,17.60
2019-06-07T00:51:57.279Z,17.60
2019-06-07T00:54:27.201Z,17.50
2019-06-07T00:56:56.944Z,17.40
2019-06-07T00:59:29.409Z,17.50
2019-06-07T01:01:58.342Z,17.50
2019-06-07T01:04:28.374Z,17.50
2019-06-07T01:06:58.247Z,17.40
2019-06-07T01:09:28.165Z,17.30
2019-06-07T01:11:57.942Z,17.30
2019-06-07T01:14:28.869Z,17.20
2019-06-07T01:17:20.130Z,17.10
2019-06-07T01:19:31.601Z,17.10
2019-06-07T01:22:01.371Z,17.00
2019-06-07T01:24:31.212Z,17.00
2019-06-07T01:27:00.974Z,16.90
2019-06-07T01:29:31.269Z,16.90
2019-06-07T01:32:01.262Z,16.80
2019-06-07T01:34:30.987Z,16.80
2019-06-07T01:37:00.938Z,16.70
2019-06-07T01:39:31.878Z,16.70
2019-06-07T01:42:01.963Z,16.70
2019-06-07T01:44:31.949Z,16.60
2019-06-07T01:47:04.346Z,16.60
2019-06-07T01:49:34.270Z,16.60
2019-06-07T01:52:03.966Z,16.60
2019-06-07T01:54:56.787Z,16.50
2019-06-07T01:57:06.352Z,16.50
2019-06-07T01:59:36.193Z,16.50
2019-06-07T02:02:06.410Z,16.40
2019-06-07T02:04:36.302Z,16.50
2019-06-07T02:07:06.332Z,16.50
2019-06-07T02:09:36.172Z,16.50
2019-06-07T02:12:25.251Z,16.50
2019-06-07T02:14:37.924Z,16.50
2019-06-07T02:17:07.756Z,16.50
2019-06-07T02:19:37.608Z,16.50
2019-06-07T02:22:07.302Z,16.50
2019-06-07T02:24:37.202Z,16.50
2019-06-07T02:27:07.100Z,16.50
2019-06-07T02:29:36.915Z,16.50
2019-06-07T02:32:06.715Z,16.60
2019-06-07T02:34:39.642Z,16.60
2019-06-07T02:37:07.952Z,16.60
2019-06-07T02:39:40.883Z,16.60
2019-06-07T02:42:09.319Z,16.50
2019-06-07T02:44:40.344Z,16.60
2019-06-07T02:47:10.403Z,16.50
2019-06-07T02:49:44.285Z,16.60
2019-06-07T02:52:13.864Z,16.60
2019-06-07T02:54:43.678Z,16.60
2019-06-07T02:57:13.423Z,16.60
2019-06-07T03:00:05.013Z,16.60
2019-06-07T03:02:15.269Z,16.60
2019-06-07T03:04:45.233Z,16.60
2019-06-07T03:07:16.274Z,16.60
2019-06-07T03:09:47.217Z,16.60
2019-06-07T03:12:19.005Z,16.70
2019-06-07T03:14:49.450Z,16.70
2019-06-07T03:17:38.874Z,16.60
2019-06-07T03:20:11.600Z,16.70
2019-06-07T03:22:43.411Z,16.70
2019-06-07T03:25:13.583Z,16.60
2019-06-07T03:27:50.028Z,16.60
2019-06-07T03:30:38.966Z,16.60
2019-06-07T03:32:48.537Z,16.70
2019-06-07T03:35:18.850Z,16.70
2019-06-07T03:37:48.580Z,16.70
2019-06-07T03:40:18.301Z,16.70
2019-06-07T03:42:48.006Z,16.70
2019-06-07T03:45:17.745Z,16.60
2019-06-07T03:47:47.558Z,16.60
2019-06-07T03:50:17.382Z,16.70
2019-06-07T03:52:47.211Z,16.60
2019-06-07T03:55:17.006Z,16.70
2019-06-07T03:58:30.186Z,16.60
2019-06-07T04:00:18.485Z,16.60
2019-06-07T04:02:48.338Z,16.70
2019-06-07T04:05:19.335Z,16.70
2019-06-07T04:07:49.090Z,16.70
2019-06-07T04:10:18.926Z,16.70
2019-06-07T04:12:48.714Z,16.70
2019-06-07T04:15:18.567Z,16.70
2019-06-07T04:18:01.505Z,16.70
2019-06-07T04:20:19.826Z,16.70
2019-06-07T04:22:49.631Z,16.70
2019-06-07T04:25:19.429Z,16.70
2019-06-07T04:27:49.236Z,16.70
2019-06-07T04:30:39.522Z,16.80
2019-06-07T04:33:09.380Z,16.90
2019-06-07T04:35:43.088Z,17.00
2019-06-07T04:38:12.206Z,17.10
2019-06-07T04:40:43.692Z,17.10
2019-06-07T04:43:14.622Z,17.20
2019-06-07T04:45:50.745Z,17.20
2019-06-07T04:48:15.993Z,17.30
2019-06-07T04:50:45.790Z,17.30
2019-06-07T04:53:15.442Z,17.40
2019-06-07T04:55:45.181Z,17.50
2019-06-07T04:58:14.941Z,17.50
2019-06-07T05:00:55.644Z,17.50
2019-06-07T05:03:16.058Z,17.50
2019-06-07T05:05:45.825Z,17.60
2019-06-07T05:08:27.703Z,17.60
2019-06-07T05:10:47.026Z,17.60
2019-06-07T05:13:16.800Z,17.70
2019-06-07T05:15:46.431Z,17.80
2019-06-07T05:18:16.139Z,17.80
2019-06-07T05:20:45.898Z,17.80
2019-06-07T05:23:59.556Z,17.90
2019-06-07T05:25:47.109Z,17.90
2019-06-07T05:28:16.924Z,18.00
2019-06-07T05:33:18.155Z,18.10
2019-06-07T05:35:47.914Z,18.10
2019-06-07T05:38:17.772Z,18.10
2019-06-07T05:40:49.141Z,18.00
2019-06-07T05:43:24.408Z,18.10
2019-06-07T05:45:54.175Z,18.20
2019-06-07T05:48:23.858Z,18.30
2019-06-07T05:50:56.790Z,18.20
2019-06-07T05:53:24.963Z,18.30
2019-06-07T05:55:54.708Z,18.30
2019-06-07T05:58:24.479Z,18.30
2019-06-07T06:00:54.349Z,18.30
2019-06-07T06:03:24.090Z,18.40
2019-06-07T06:05:55.585Z,18.40
2019-06-07T06:08:25.276Z,18.60
2019-06-07T06:10:55.071Z,18.70
2019-06-07T06:13:25.018Z,18.80
2019-06-07T06:16:01.846Z,19.00
2019-06-07T06:18:26.117Z,19.20
2019-06-07T06:21:15.540Z,19.50
2019-06-07T06:23:27.417Z,19.60
2019-06-07T06:25:58.291Z,19.80
2019-06-07T06:28:28.391Z,19.90
2019-06-07T06:30:58.111Z,19.90
2019-06-07T06:33:34.554Z,20.00
2019-06-07T06:35:59.519Z,20.10
2019-06-07T06:38:29.392Z,20.30
2019-06-07T06:41:14.726Z,20.40
2019-06-07T06:43:30.631Z,20.60
2019-06-07T06:46:00.455Z,20.70
2019-06-07T06:48:30.207Z,20.90
2019-06-07T06:51:00.023Z,21.10
2019-06-07T06:53:30.823Z,21.20
2019-06-07T06:56:00.584Z,21.40
2019-06-07T06:59:18.513Z,21.50
2019-06-07T07:01:06.693Z,21.50
2019-06-07T07:03:57.659Z,21.60
2019-06-07T07:06:25.068Z,21.50
2019-06-07T07:08:37.791Z,21.60
2019-06-07T07:11:07.565Z,21.80
2019-06-07T07:13:37.500Z,22.30
2019-06-07T07:16:07.280Z,23.00
2019-06-07T07:18:37.130Z,23.90
2019-06-07T07:21:06.984Z,24.70
2019-06-07T07:23:36.758Z,25.40
2019-06-07T07:26:06.603Z,26.20
2019-06-07T07:28:36.462Z,26.80
2019-06-07T07:31:06.283Z,27.50
2019-06-07T07:36:28.154Z,28.60
2019-06-07T07:38:38.768Z,28.90
2019-06-07T07:41:15.257Z,29.10
2019-06-07T07:43:40.046Z,29.50
2019-06-07T07:46:28.579Z,29.80
2019-06-07T07:48:41.254Z,30.30
2019-06-07T07:51:11.105Z,30.70
2019-06-07T07:53:52.410Z,30.90
2019-06-07T07:56:12.383Z,31.20
2019-06-07T07:58:42.210Z,31.40
2019-06-07T08:01:12.015Z,31.60
2019-06-07T08:03:41.709Z,31.70
2019-06-07T08:06:11.663Z,31.90
2019-06-07T08:08:41.322Z,32.40
2019-06-07T08:11:11.013Z,32.70
2019-06-07T08:13:40.776Z,33.30
2019-06-07T08:16:16.244Z,33.70
2019-06-07T08:18:41.979Z,33.90
2019-06-07T08:21:24.363Z,34.20
2019-06-07T08:23:43.143Z,34.50
2019-06-07T08:26:12.852Z,34.50
2019-06-07T08:28:42.709Z,34.20
2019-06-07T08:31:12.459Z,33.90
2019-06-07T08:33:42.224Z,34.10
2019-06-07T08:36:20.262Z,34.50
2019-06-07T08:38:48.154Z,34.70
2019-06-07T08:41:14.860Z,35.10
2019-06-07T08:43:44.684Z,35.50
2019-06-07T08:46:14.418Z,35.80
2019-06-07T08:48:44.231Z,36.20
2019-06-07T08:51:13.951Z,36.40
2019-06-07T08:54:00.628Z,36.30
2019-06-07T08:56:15.123Z,36.40
2019-06-07T08:58:44.944Z,36.20
2019-06-07T09:01:14.789Z,35.90
2019-06-07T09:03:44.610Z,35.70
2019-06-07T09:07:01.316Z,35.80
2019-06-07T09:08:45.903Z,35.70
2019-06-07T09:11:15.738Z,35.80
2019-06-07T09:13:45.499Z,35.60
2019-06-07T09:16:15.278Z,35.40
2019-06-07T09:18:45.297Z,35.30
2019-06-07T09:21:15.231Z,35.50
2019-06-07T09:23:45.034Z,35.40
2019-06-07T09:26:18.385Z,34.90
2019-06-07T09:28:46.802Z,34.50
2019-06-07T09:31:16.637Z,34.20
2019-06-07T09:33:46.498Z,33.90
2019-06-07T09:36:16.356Z,33.60
2019-06-07T09:38:46.103Z,33.40
2019-06-07T09:41:15.952Z,33.50
2019-06-07T09:44:18.355Z,33.70
2019-06-07T09:46:17.342Z,34.10
2019-06-07T09:49:12.353Z,34.00
2019-06-07T09:51:20.453Z,33.60
2019-06-07T09:53:50.116Z,33.30
2019-06-07T09:56:19.847Z,33.20
2019-06-07T09:58:52.831Z,33.30
2019-06-07T10:01:20.929Z,33.60
2019-06-07T10:03:50.671Z,34.10
2019-06-07T10:06:20.542Z,34.50
2019-06-07T10:11:21.572Z,35.20
2019-06-07T10:13:51.437Z,35.50
2019-06-07T10:16:21.243Z,35.80
2019-06-07T10:18:51.034Z,35.70
2019-06-07T10:21:20.750Z,35.60
2019-06-07T10:23:50.542Z,35.20
2019-06-07T10:26:20.256Z,34.60
2019-06-07T10:28:53.464Z,34.20
2019-06-07T10:31:21.467Z,33.60
2019-06-07T10:33:51.255Z,33.00
2019-06-07T10:36:21.042Z,32.50
2019-06-07T10:38:51.000Z,32.50
2019-06-07T10:41:20.820Z,32.70
2019-06-07T10:43:50.599Z,33.20
2019-06-07T10:46:20.431Z,33.90
2019-06-07T10:48:50.213Z,34.40
2019-06-07T10:51:20.020Z,34.70
2019-06-07T10:53:50.165Z,35.00
2019-06-07T10:56:19.980Z,35.40
2019-06-07T10:58:49.785Z,35.60
2019-06-07T11:01:19.547Z,35.90
2019-06-07T11:03:49.365Z,36.30
2019-06-07T11:06:19.197Z,36.60
2019-06-07T11:08:49.062Z,36.90
2019-06-07T11:11:18.804Z,36.90
2019-06-07T11:13:48.618Z,36.90
2019-06-07T11:16:18.267Z,36.70
2019-06-07T11:18:47.974Z,36.80
2019-06-07T11:21:18.636Z,36.60
2019-06-07T11:23:48.517Z,36.30
2019-06-07T11:26:18.641Z,36.10
2019-06-07T11:28:48.539Z,35.60
2019-06-07T11:31:18.934Z,35.40
2019-06-07T11:33:48.859Z,35.30
2019-06-07T11:36:18.885Z,35.10
2019-06-07T11:38:49.030Z,35.10
2019-06-07T11:41:18.819Z,35.30
2019-06-07T11:43:48.656Z,35.30
2019-06-07T11:46:18.535Z,35.00
2019-06-07T11:48:48.284Z,35.00
2019-06-07T11:51:18.930Z,34.90
2019-06-07T11:53:48.720Z,34.90
2019-06-07T11:56:18.551Z,34.70
2019-06-07T11:58:48.354Z,34.40
2019-06-07T12:01:18.688Z,34.10
2019-06-07T12:03:48.836Z,33.60
2019-06-07T12:06:18.685Z,33.30
2019-06-07T12:08:48.447Z,33.00
2019-06-07T12:11:18.519Z,32.70
2019-06-07T12:13:48.393Z,32.40
2019-06-07T12:16:19.432Z,32.10
2019-06-07T12:18:49.348Z,32.00
2019-06-07T12:21:19.861Z,31.90
2019-06-07T12:23:49.761Z,31.90
2019-06-07T12:26:20.669Z,32.00
2019-06-07T12:28:50.865Z,31.80
2019-06-07T12:31:21.201Z,31.70
2019-06-07T12:33:51.268Z,31.50
2019-06-07T12:36:22.019Z,31.40
2019-06-07T12:38:51.947Z,31.30
2019-06-07T12:41:22.393Z,31.20
2019-06-07T12:43:52.222Z,31.20
2019-06-07T12:46:27.969Z,30.90
2019-06-07T12:48:53.483Z,30.80
2019-06-07T12:51:23.496Z,30.80
2019-06-07T12:53:53.328Z,30.80
2019-06-07T12:56:24.230Z,30.90
2019-06-07T12:58:54.413Z,31.10
2019-06-07T13:01:24.870Z,31.20
2019-06-07T13:03:54.763Z,31.20
2019-06-07T13:06:24.488Z,31.20
2019-06-07T13:08:54.262Z,31.00
2019-06-07T13:11:28.245Z,30.90
2019-06-07T13:13:55.515Z,30.80
2019-06-07T13:16:25.327Z,30.70
2019-06-07T13:18:55.180Z,30.50
2019-06-07T13:21:24.995Z,30.40
2019-06-07T13:23:54.774Z,30.20
2019-06-07T13:26:25.049Z,30.10
2019-06-07T13:28:55.551Z,29.90
2019-06-07T13:31:25.361Z,29.70
2019-06-07T13:33:55.142Z,29.60
2019-06-07T13:36:24.958Z,29.50
2019-06-07T13:38:54.703Z,29.50
2019-06-07T13:41:36.346Z,29.40
2019-06-07T13:43:56.987Z,29.40
2019-06-07T13:46:27.199Z,29.30
2019-06-07T13:48:57.240Z,29.30
2019-06-07T13:51:28.618Z,29.40
2019-06-07T13:53:58.433Z,29.40
2019-06-07T13:56:28.419Z,29.40
2019-06-07T13:58:58.210Z,29.50
2019-06-07T14:01:29.003Z,29.60
2019-06-07T14:03:59.065Z,29.70
2019-06-07T14:06:30.251Z,29.60
2019-06-07T14:09:00.230Z,29.60
2019-06-07T14:11:40.737Z,29.70
2019-06-07T14:14:01.579Z,29.80
2019-06-07T14:16:31.296Z,29.90
2019-06-07T14:19:02.008Z,29.90
2019-06-07T14:21:31.836Z,29.70
2019-06-07T14:24:01.773Z,29.70
2019-06-07T14:26:32.529Z,29.70
2019-06-07T14:29:02.579Z,29.70
2019-06-07T14:31:32.377Z,29.70
2019-06-07T14:34:02.519Z,29.70
2019-06-07T14:36:33.310Z,29.60
2019-06-07T14:39:04.939Z,29.70
2019-06-07T14:41:34.716Z,29.80
2019-06-07T14:44:04.730Z,29.70
2019-06-07T14:46:34.557Z,29.50
2019-06-07T14:49:04.316Z,29.40
2019-06-07T14:51:35.286Z,29.30
2019-06-07T14:54:05.386Z,29.30
2019-06-07T14:56:35.386Z,29.30
2019-06-07T14:59:05.324Z,29.20
2019-06-07T15:01:35.695Z,29.20
2019-06-07T15:04:05.970Z,29.10
2019-06-07T15:06:35.798Z,29.10
2019-06-07T15:09:07.030Z,29.10
2019-06-07T15:11:36.881Z,29.10
2019-06-07T15:14:06.800Z,29.10
2019-06-07T15:16:37.823Z,29.10
2019-06-07T15:19:08.084Z,29.00
2019-06-07T15:21:39.207Z,28.90
2019-06-07T15:24:09.323Z,28.90
2019-06-07T15:26:39.124Z,28.80
2019-06-07T15:29:09.028Z,28.70
2019-06-07T15:31:38.831Z,28.60
2019-06-07T15:34:09.091Z,28.60
2019-06-07T15:36:38.917Z,28.60
2019-06-07T15:39:09.115Z,28.50
2019-06-07T15:41:39.702Z,28.50
2019-06-07T15:44:09.894Z,28.50
2019-06-07T15:46:40.152Z,28.50
2019-06-07T15:49:10.254Z,28.40
2019-06-07T15:51:41.014Z,28.40
2019-06-07T15:54:10.987Z,28.30
2019-06-07T15:56:41.223Z,28.30
2019-06-07T15:59:11.238Z,28.20
2019-06-07T16:01:42.122Z,28.20
2019-06-07T16:04:12.187Z,28.10
2019-06-07T16:06:43.584Z,28.10
2019-06-07T16:09:13.555Z,28.00
2019-06-07T16:11:43.941Z,28.00
2019-06-07T16:14:14.188Z,28.00
2019-06-07T16:16:43.918Z,27.90
2019-06-07T16:19:13.793Z,27.90
2019-06-07T16:21:43.778Z,27.80
2019-06-07T16:24:13.567Z,27.90
2019-06-07T16:26:44.610Z,27.80
2019-06-07T16:29:15.842Z,27.80
2019-06-07T16:31:45.630Z,27.70
2019-06-07T16:34:15.447Z,27.70
2019-06-07T16:36:46.813Z,27.70
2019-06-07T16:39:16.738Z,27.70
2019-06-07T16:41:46.436Z,27.70
2019-06-07T16:44:16.211Z,27.50
2019-06-07T16:46:45.955Z,27.50
2019-06-07T16:49:15.756Z,27.50
2019-06-07T16:51:45.514Z,27.50
2019-06-07T16:54:15.233Z,27.40
2019-06-07T16:56:48.112Z,27.40
2019-06-07T16:59:16.598Z,27.30
2019-06-07T17:01:46.429Z,27.30
2019-06-07T17:04:16.324Z,27.30
2019-06-07T17:06:46.505Z,27.20
2019-06-07T17:09:16.719Z,27.20
2019-06-07T17:11:46.604Z,27.10
2019-06-07T17:14:16.390Z,27.10
2019-06-07T17:16:47.940Z,27.00
2019-06-07T17:19:17.637Z,27.00
2019-06-07T17:21:47.591Z,27.00
2019-06-07T17:24:17.511Z,26.90
2019-06-07T17:26:47.697Z,26.90
2019-06-07T17:29:17.729Z,26.90
2019-06-07T17:31:48.248Z,26.80
2019-06-07T17:34:18.225Z,26.80
2019-06-07T17:36:48.648Z,26.70
2019-06-07T17:39:18.912Z,26.70
2019-06-07T17:41:59.794Z,26.60
2019-06-07T17:44:22.610Z,26.60
2019-06-07T17:46:52.330Z,26.50
2019-06-07T17:49:22.099Z,26.50
2019-06-07T17:51:52.298Z,26.50
2019-06-07T17:54:22.210Z,26.40
2019-06-07T17:56:53.142Z,26.40
2019-06-07T17:59:23.111Z,26.30
2019-06-07T18:02:13.440Z,26.30
2019-06-07T18:04:24.892Z,26.20
2019-06-07T18:06:55.211Z,26.20
2019-06-07T18:09:26.101Z,26.20
2019-06-07T18:11:55.943Z,26.10
2019-06-07T18:14:25.923Z,26.10
2019-06-07T18:16:55.843Z,26.00
2019-06-07T18:19:25.836Z,25.90
2019-06-07T18:21:58.825Z,25.90
2019-06-07T18:24:27.559Z,25.80
2019-06-07T18:26:58.809Z,25.80
2019-06-07T18:29:33.348Z,25.70
2019-06-07T18:32:03.281Z,25.60
2019-06-07T18:34:39.040Z,25.60
2019-06-07T18:37:08.965Z,25.50
2019-06-07T18:39:43.481Z,25.50
2019-06-07T18:42:13.543Z,25.40
2019-06-07T18:44:46.924Z,25.30
2019-06-07T18:47:16.949Z,25.30
2019-06-07T18:49:49.575Z,25.20
2019-06-07T18:52:23.563Z,25.20
2019-06-07T18:54:54.979Z,25.10
2019-06-07T18:57:37.569Z,25.00
2019-06-07T19:00:10.323Z,25.00
2019-06-07T19:02:40.734Z,24.90
2019-06-07T19:05:12.379Z,24.90
2019-06-07T19:07:42.371Z,24.80
2019-06-07T19:10:13.690Z,24.70
2019-06-07T19:12:45.353Z,24.70
2019-06-07T19:15:16.692Z,24.60
2019-06-07T19:17:47.674Z,24.60
2019-06-07T19:20:20.563Z,24.50
2019-06-07T19:22:50.452Z,24.50
2019-06-07T19:25:21.380Z,24.50
2019-06-07T19:27:52.576Z,24.40
2019-06-07T19:30:23.902Z,24.40
2019-06-07T19:32:54.983Z,24.30
2019-06-07T19:35:25.283Z,24.30
2019-06-07T19:37:55.846Z,24.30
2019-06-07T19:40:26.034Z,24.20
2019-06-07T19:42:56.472Z,24.10
2019-06-07T19:45:31.239Z,24.10
2019-06-07T19:48:00.739Z,24.00
2019-06-07T19:50:30.820Z,24.00
2019-06-07T19:53:01.310Z,24.00
2019-06-07T19:55:31.616Z,23.90
2019-06-07T19:58:03.766Z,23.90
2019-06-07T20:00:33.101Z,23.90
2019-06-07T20:03:04.294Z,23.80
2019-06-07T20:05:34.536Z,23.80
2019-06-07T20:08:06.951Z,23.80
2019-06-07T20:10:36.868Z,23.70
2019-06-07T20:13:06.702Z,23.70
2019-06-07T20:15:36.739Z,23.70
2019-06-07T20:18:07.702Z,23.60
2019-06-07T20:20:37.972Z,23.60
2019-06-07T20:23:09.248Z,23.60
2019-06-07T20:25:39.381Z,23.50
2019-06-07T20:28:09.415Z,23.50
2019-06-07T20:30:39.395Z,23.40
2019-06-07T20:33:09.193Z,23.40
2019-06-07T20:35:39.135Z,23.40
2019-06-07T20:38:09.555Z,23.40
2019-06-07T20:40:42.012Z,23.30
2019-06-07T20:43:11.932Z,23.30
2019-06-07T20:45:41.861Z,23.20
2019-06-07T20:48:11.729Z,23.20
2019-06-07T20:50:44.060Z,23.20
2019-06-07T20:53:13.902Z,23.20
2019-06-07T20:55:43.711Z,23.20
2019-06-07T20:58:13.952Z,23.10
2019-06-07T21:00:43.772Z,23.10
2019-06-07T21:03:13.523Z,23.10
2019-06-07T21:05:43.371Z,23.00
2019-06-07T21:08:13.266Z,23.00
2019-06-07T21:10:43.120Z,23.00
2019-06-07T21:13:12.967Z,22.90
2019-06-07T21:15:48.864Z,22.90
2019-06-07T21:18:19.418Z,22.80
2019-06-07T21:20:45.850Z,22.80
2019-06-07T21:23:15.710Z,22.80
2019-06-07T21:25:45.488Z,22.80
2019-06-07T21:28:15.464Z,22.80
2019-06-07T21:30:45.265Z,22.70
2019-06-07T21:33:15.136Z,22.70
2019-06-07T21:35:48.149Z,22.70
2019-06-07T21:38:36.163Z,22.70
2019-06-07T21:41:08.468Z,22.70
2019-06-07T21:43:47.406Z,22.70
2019-06-07T21:46:27.223Z,22.60
2019-06-07T21:48:59.600Z,22.60
2019-06-07T21:51:29.510Z,22.50
2019-06-07T21:54:09.573Z,22.50
2019-06-07T21:56:43.627Z,22.40
2019-06-07T21:59:17.082Z,22.40
2019-06-07T22:01:47.992Z,22.40
2019-06-07T22:04:17.770Z,22.40
2019-06-07T22:06:47.596Z,22.30
2019-06-07T22:09:18.602Z,22.20
2019-06-07T22:11:49.810Z,22.20
2019-06-07T22:14:19.695Z,22.20
2019-06-07T22:16:49.534Z,22.10
2019-06-07T22:19:19.339Z,22.10
2019-06-07T22:22:02.250Z,22.00
2019-06-07T22:24:23.673Z,22.00
2019-06-07T22:26:53.534Z,22.00
2019-06-07T22:29:23.370Z,21.90
2019-06-07T22:31:53.205Z,21.90
2019-06-07T22:34:23.092Z,21.90
2019-06-07T22:36:52.983Z,21.80
2019-06-07T22:39:22.925Z,21.80
2019-06-07T22:41:54.743Z,21.70
2019-06-07T22:44:24.551Z,21.70
2019-06-07T22:46:54.677Z,21.70
2019-06-07T22:49:24.633Z,21.70
2019-06-07T22:52:07.976Z,21.70
2019-06-07T22:54:25.977Z,21.60
2019-06-07T22:57:00.090Z,21.60
2019-06-07T22:59:29.983Z,21.50
2019-06-07T23:01:59.851Z,21.50
2019-06-07T23:04:30.003Z,21.40
2019-06-07T23:06:59.895Z,21.40
2019-06-07T23:09:29.872Z,21.40
2019-06-07T23:11:59.729Z,21.30
2019-06-07T23:14:29.655Z,21.30
2019-06-07T23:16:59.448Z,21.30
2019-06-07T23:19:29.334Z,21.30
2019-06-07T23:21:59.250Z,21.20
2019-06-07T23:24:29.065Z,21.20
2019-06-07T23:26:58.886Z,21.20
2019-06-07T23:29:28.717Z,21.20
2019-06-07T23:31:58.716Z,21.20
2019-06-07T23:34:28.612Z,21.10
2019-06-07T23:36:58.463Z,21.10
2019-06-07T23:39:28.318Z,21.10
2019-06-07T23:41:58.157Z,21.10
2019-06-07T23:44:27.978Z,21.10
2019-06-07T23:47:10.403Z,21.10
2019-06-07T23:49:30.492Z,21.00
2019-06-07T23:52:00.408Z,21.00
2019-06-07T23:54:30.223Z,21.00
2019-06-07T23:57:00.113Z,20.90
2019-06-07T23:59:30.009Z,20.90
